sensor_id;sensor_type;location;lat;lon;timestamp;P1;durP1;ratioP1;P2;durP2;ratioP2
71767;SDS011;59604;52.138;5.446;2022-12-20T00:01:17;8.02;;;3.00;;
71767;SDS011;59604;52.138;5.446;2022-12-20T00:03:47;7.47;;;3.00;;
71767;SDS011;59604;52.138;5.446;2022-12-20T00:06:16;9.07;;;2.92;;
71767;SDS011;59604;52.138;5.446;2022-12-20T00:08:44;8.55;;;3.00;;
71767;SDS011;59604;52.138;5.446;2022-12-20T00:11:11;7.60;;;3.15;;
71767;SDS011;59604;52.138;5.446;2022-12-20T00:13:38;9.52;;;3.03;;
71767;SDS011;59604;52.138;5.446;2022-12-20T00:16:09;9.10;;;3.00;;
71767;SDS011;59604;52.138;5.446;2022-12-20T00:18:41;8.80;;;2.88;;
71767;SDS011;59604;52.138;5.446;2022-12-20T00:21:10;7.22;;;2.95;;
71767;SDS011;59604;52.138;5.446;2022-12-20T00:23:38;8.68;;;2.65;;
71767;SDS011;59604;52.138;5.446;2022-12-20T00:26:06;6.70;;;3.00;;
71767;SDS011;59604;52.138;5.446;2022-12-20T00:28:34;5.65;;;2.78;;
71767;SDS011;59604;52.138;5.446;2022-12-20T00:31:02;5.90;;;2.63;;
71767;SDS011;59604;52.138;5.446;2022-12-20T00:33:31;7.60;;;2.95;;
71767;SDS011;59604;52.138;5.446;2022-12-20T00:35:58;6.38;;;2.60;;
71767;SDS011;59604;52.138;5.446;2022-12-20T00:38:25;6.65;;;2.80;;
71767;SDS011;59604;52.138;5.446;2022-12-20T00:40:58;9.48;;;3.10;;
71767;SDS011;59604;52.138;5.446;2022-12-20T00:43:25;8.32;;;3.10;;
71767;SDS011;59604;52.138;5.446;2022-12-20T00:45:52;6.50;;;2.72;;
71767;SDS011;59604;52.138;5.446;2022-12-20T00:48:19;6.25;;;2.63;;
71767;SDS011;59604;52.138;5.446;2022-12-20T00:50:45;6.75;;;2.72;;
71767;SDS011;59604;52.138;5.446;2022-12-20T00:53:12;5.47;;;2.47;;
71767;SDS011;59604;52.138;5.446;2022-12-20T00:55:43;7.53;;;2.80;;
71767;SDS011;59604;52.138;5.446;2022-12-20T00:58:11;6.22;;;2.53;;
71767;SDS011;59604;52.138;5.446;2022-12-20T01:00:38;7.28;;;2.80;;
71767;SDS011;59604;52.138;5.446;2022-12-20T01:03:05;7.00;;;2.60;;
71767;SDS011;59604;52.138;5.446;2022-12-20T01:05:33;6.53;;;2.80;;
71767;SDS011;59604;52.138;5.446;2022-12-20T01:07:59;6.53;;;2.70;;
71767;SDS011;59604;52.138;5.446;2022-12-20T01:10:26;7.95;;;2.70;;
71767;SDS011;59604;52.138;5.446;2022-12-20T01:12:52;6.78;;;2.80;;
71767;SDS011;59604;52.138;5.446;2022-12-20T01:15:19;6.38;;;2.90;;
71767;SDS011;59604;52.138;5.446;2022-12-20T01:17:46;7.13;;;2.60;;
71767;SDS011;59604;52.138;5.446;2022-12-20T01:20:13;7.53;;;2.63;;
71767;SDS011;59604;52.138;5.446;2022-12-20T01:22:39;5.90;;;2.60;;
71767;SDS011;59604;52.138;5.446;2022-12-20T01:25:12;7.45;;;2.60;;
71767;SDS011;59604;52.138;5.446;2022-12-20T01:27:39;9.85;;;2.90;;
71767;SDS011;59604;52.138;5.446;2022-12-20T01:30:06;6.28;;;2.67;;
71767;SDS011;59604;52.138;5.446;2022-12-20T01:32:33;6.97;;;2.58;;
71767;SDS011;59604;52.138;5.446;2022-12-20T01:34:59;8.18;;;3.03;;
71767;SDS011;59604;52.138;5.446;2022-12-20T01:37:26;6.45;;;2.90;;
71767;SDS011;59604;52.138;5.446;2022-12-20T01:39:52;7.15;;;3.13;;
71767;SDS011;59604;52.138;5.446;2022-12-20T01:42:19;8.07;;;3.00;;
71767;SDS011;59604;52.138;5.446;2022-12-20T01:44:56;7.32;;;2.70;;
71767;SDS011;59604;52.138;5.446;2022-12-20T01:47:24;6.75;;;2.92;;
71767;SDS011;59604;52.138;5.446;2022-12-20T01:49:52;6.25;;;2.90;;
71767;SDS011;59604;52.138;5.446;2022-12-20T01:52:40;8.80;;;3.15;;
71767;SDS011;59604;52.138;5.446;2022-12-20T01:55:21;8.32;;;3.60;;
71767;SDS011;59604;52.138;5.446;2022-12-20T01:57:58;8.65;;;2.97;;
71767;SDS011;59604;52.138;5.446;2022-12-20T02:00:27;6.45;;;2.90;;
71767;SDS011;59604;52.138;5.446;2022-12-20T02:02:54;9.00;;;3.10;;
71767;SDS011;59604;52.138;5.446;2022-12-20T02:05:24;7.75;;;3.30;;
71767;SDS011;59604;52.138;5.446;2022-12-20T02:07:52;7.57;;;3.08;;
71767;SDS011;59604;52.138;5.446;2022-12-20T02:10:21;7.43;;;3.08;;
71767;SDS011;59604;52.138;5.446;2022-12-20T02:12:54;7.78;;;2.97;;
71767;SDS011;59604;52.138;5.446;2022-12-20T02:18:34;8.00;;;3.28;;
71767;SDS011;59604;52.138;5.446;2022-12-20T02:26:49;7.32;;;2.97;;
71767;SDS011;59604;52.138;5.446;2022-12-20T02:32:08;7.32;;;3.13;;
71767;SDS011;59604;52.138;5.446;2022-12-20T02:34:42;7.70;;;3.20;;
71767;SDS011;59604;52.138;5.446;2022-12-20T02:37:09;8.63;;;3.15;;
71767;SDS011;59604;52.138;5.446;2022-12-20T02:39:36;9.38;;;3.60;;
71767;SDS011;59604;52.138;5.446;2022-12-20T02:42:09;9.02;;;3.50;;
71767;SDS011;59604;52.138;5.446;2022-12-20T02:44:38;9.15;;;3.42;;
71767;SDS011;59604;52.138;5.446;2022-12-20T02:47:32;7.85;;;3.30;;
71767;SDS011;59604;52.138;5.446;2022-12-20T02:50:04;7.05;;;3.17;;
71767;SDS011;59604;52.138;5.446;2022-12-20T02:52:32;8.30;;;3.42;;
71767;SDS011;59604;52.138;5.446;2022-12-20T02:55:00;8.10;;;3.17;;
71767;SDS011;59604;52.138;5.446;2022-12-20T02:57:36;9.10;;;3.22;;
71767;SDS011;59604;52.138;5.446;2022-12-20T03:00:09;7.10;;;3.40;;
71767;SDS011;59604;52.138;5.446;2022-12-20T03:02:42;8.43;;;3.25;;
71767;SDS011;59604;52.138;5.446;2022-12-20T03:05:29;6.78;;;3.15;;
71767;SDS011;59604;52.138;5.446;2022-12-20T03:07:58;8.00;;;3.22;;
71767;SDS011;59604;52.138;5.446;2022-12-20T03:10:25;7.20;;;3.00;;
71767;SDS011;59604;52.138;5.446;2022-12-20T03:12:52;8.82;;;3.42;;
71767;SDS011;59604;52.138;5.446;2022-12-20T03:15:19;8.70;;;3.47;;
71767;SDS011;59604;52.138;5.446;2022-12-20T03:17:45;9.00;;;3.25;;
71767;SDS011;59604;52.138;5.446;2022-12-20T03:20:12;8.63;;;3.03;;
71767;SDS011;59604;52.138;5.446;2022-12-20T03:22:38;9.00;;;3.50;;
71767;SDS011;59604;52.138;5.446;2022-12-20T03:25:05;7.82;;;3.28;;
71767;SDS011;59604;52.138;5.446;2022-12-20T03:27:32;8.20;;;3.40;;
71767;SDS011;59604;52.138;5.446;2022-12-20T03:29:59;8.85;;;3.25;;
71767;SDS011;59604;52.138;5.446;2022-12-20T03:32:25;8.40;;;3.40;;
71767;SDS011;59604;52.138;5.446;2022-12-20T03:34:52;7.68;;;3.13;;
71767;SDS011;59604;52.138;5.446;2022-12-20T03:37:18;9.35;;;3.40;;
71767;SDS011;59604;52.138;5.446;2022-12-20T03:39:45;9.45;;;3.40;;
71767;SDS011;59604;52.138;5.446;2022-12-20T03:42:11;10.68;;;3.50;;
71767;SDS011;59604;52.138;5.446;2022-12-20T03:44:38;10.05;;;3.20;;
71767;SDS011;59604;52.138;5.446;2022-12-20T03:47:05;7.68;;;3.33;;
71767;SDS011;59604;52.138;5.446;2022-12-20T03:49:31;7.82;;;3.47;;
71767;SDS011;59604;52.138;5.446;2022-12-20T03:51:58;9.82;;;3.65;;
71767;SDS011;59604;52.138;5.446;2022-12-20T03:54:24;7.88;;;3.28;;
71767;SDS011;59604;52.138;5.446;2022-12-20T03:56:51;6.80;;;3.10;;
71767;SDS011;59604;52.138;5.446;2022-12-20T03:59:18;7.82;;;3.10;;
71767;SDS011;59604;52.138;5.446;2022-12-20T04:01:44;6.60;;;2.97;;
71767;SDS011;59604;52.138;5.446;2022-12-20T04:04:11;7.82;;;3.35;;
71767;SDS011;59604;52.138;5.446;2022-12-20T04:06:40;9.18;;;3.30;;
71767;SDS011;59604;52.138;5.446;2022-12-20T04:09:07;8.82;;;3.63;;
71767;SDS011;59604;52.138;5.446;2022-12-20T04:11:33;7.90;;;3.13;;
71767;SDS011;59604;52.138;5.446;2022-12-20T04:14:00;9.10;;;3.25;;
71767;SDS011;59604;52.138;5.446;2022-12-20T04:16:27;7.30;;;3.28;;
71767;SDS011;59604;52.138;5.446;2022-12-20T04:18:55;6.55;;;3.08;;
71767;SDS011;59604;52.138;5.446;2022-12-20T04:21:22;6.78;;;3.10;;
71767;SDS011;59604;52.138;5.446;2022-12-20T04:23:50;8.27;;;3.30;;
71767;SDS011;59604;52.138;5.446;2022-12-20T04:26:17;9.18;;;3.15;;
71767;SDS011;59604;52.138;5.446;2022-12-20T04:28:44;9.68;;;3.15;;
71767;SDS011;59604;52.138;5.446;2022-12-20T04:31:11;6.90;;;2.92;;
71767;SDS011;59604;52.138;5.446;2022-12-20T04:33:40;8.30;;;3.40;;
71767;SDS011;59604;52.138;5.446;2022-12-20T04:36:06;8.02;;;3.17;;
71767;SDS011;59604;52.138;5.446;2022-12-20T04:38:33;7.75;;;3.20;;
71767;SDS011;59604;52.138;5.446;2022-12-20T04:41:00;8.55;;;2.92;;
71767;SDS011;59604;52.138;5.446;2022-12-20T04:43:27;7.90;;;2.78;;
71767;SDS011;59604;52.138;5.446;2022-12-20T04:45:54;7.38;;;3.20;;
71767;SDS011;59604;52.138;5.446;2022-12-20T04:48:22;7.85;;;3.08;;
71767;SDS011;59604;52.138;5.446;2022-12-20T04:51:12;7.18;;;2.90;;
71767;SDS011;59604;52.138;5.446;2022-12-20T04:53:38;7.38;;;2.90;;
71767;SDS011;59604;52.138;5.446;2022-12-20T04:56:19;8.00;;;2.85;;
71767;SDS011;59604;52.138;5.446;2022-12-20T04:58:54;7.32;;;3.10;;
71767;SDS011;59604;52.138;5.446;2022-12-20T05:01:22;6.47;;;2.72;;
71767;SDS011;59604;52.138;5.446;2022-12-20T05:03:50;5.65;;;2.65;;
71767;SDS011;59604;52.138;5.446;2022-12-20T05:06:17;8.52;;;3.00;;
71767;SDS011;59604;52.138;5.446;2022-12-20T05:08:43;8.23;;;2.92;;
71767;SDS011;59604;52.138;5.446;2022-12-20T05:11:10;7.38;;;2.97;;
71767;SDS011;59604;52.138;5.446;2022-12-20T05:13:37;8.52;;;3.20;;
71767;SDS011;59604;52.138;5.446;2022-12-20T05:16:03;7.55;;;2.97;;
71767;SDS011;59604;52.138;5.446;2022-12-20T05:18:31;8.13;;;2.90;;
71767;SDS011;59604;52.138;5.446;2022-12-20T05:20:58;7.85;;;2.95;;
71767;SDS011;59604;52.138;5.446;2022-12-20T05:23:44;10.35;;;2.97;;
71767;SDS011;59604;52.138;5.446;2022-12-20T05:26:31;6.57;;;2.90;;
71767;SDS011;59604;52.138;5.446;2022-12-20T05:29:00;6.53;;;2.85;;
71767;SDS011;59604;52.138;5.446;2022-12-20T05:31:26;6.40;;;2.90;;
71767;SDS011;59604;52.138;5.446;2022-12-20T05:33:53;7.22;;;3.17;;
71767;SDS011;59604;52.138;5.446;2022-12-20T05:36:20;7.13;;;3.10;;
71767;SDS011;59604;52.138;5.446;2022-12-20T05:38:46;7.60;;;3.45;;
71767;SDS011;59604;52.138;5.446;2022-12-20T05:41:13;9.13;;;3.38;;
71767;SDS011;59604;52.138;5.446;2022-12-20T05:43:40;8.55;;;3.17;;
71767;SDS011;59604;52.138;5.446;2022-12-20T05:46:09;7.03;;;3.03;;
71767;SDS011;59604;52.138;5.446;2022-12-20T05:48:36;6.45;;;3.00;;
71767;SDS011;59604;52.138;5.446;2022-12-20T05:51:03;6.50;;;2.60;;
71767;SDS011;59604;52.138;5.446;2022-12-20T05:53:30;7.18;;;2.80;;
71767;SDS011;59604;52.138;5.446;2022-12-20T05:55:57;6.55;;;3.05;;
71767;SDS011;59604;52.138;5.446;2022-12-20T05:58:24;7.68;;;3.08;;
71767;SDS011;59604;52.138;5.446;2022-12-20T06:00:50;8.57;;;3.13;;
71767;SDS011;59604;52.138;5.446;2022-12-20T06:03:17;6.70;;;3.25;;
71767;SDS011;59604;52.138;5.446;2022-12-20T06:05:44;8.10;;;3.00;;
71767;SDS011;59604;52.138;5.446;2022-12-20T06:08:11;7.72;;;3.05;;
71767;SDS011;59604;52.138;5.446;2022-12-20T06:10:39;7.88;;;2.97;;
71767;SDS011;59604;52.138;5.446;2022-12-20T06:13:10;7.13;;;3.17;;
71767;SDS011;59604;52.138;5.446;2022-12-20T06:15:37;8.90;;;3.55;;
71767;SDS011;59604;52.138;5.446;2022-12-20T06:18:04;8.20;;;3.20;;
71767;SDS011;59604;52.138;5.446;2022-12-20T06:20:32;7.32;;;3.38;;
71767;SDS011;59604;52.138;5.446;2022-12-20T06:23:00;7.60;;;3.05;;
71767;SDS011;59604;52.138;5.446;2022-12-20T06:25:27;7.70;;;3.03;;
71767;SDS011;59604;52.138;5.446;2022-12-20T06:27:54;6.95;;;2.95;;
71767;SDS011;59604;52.138;5.446;2022-12-20T06:30:21;8.82;;;3.13;;
71767;SDS011;59604;52.138;5.446;2022-12-20T06:32:54;6.70;;;3.10;;
71767;SDS011;59604;52.138;5.446;2022-12-20T06:35:20;8.82;;;3.05;;
71767;SDS011;59604;52.138;5.446;2022-12-20T06:37:47;8.57;;;3.20;;
71767;SDS011;59604;52.138;5.446;2022-12-20T06:40:13;8.45;;;2.72;;
71767;SDS011;59604;52.138;5.446;2022-12-20T06:42:40;7.55;;;2.88;;
71767;SDS011;59604;52.138;5.446;2022-12-20T06:45:07;7.07;;;2.80;;
71767;SDS011;59604;52.138;5.446;2022-12-20T06:47:34;6.25;;;2.90;;
71767;SDS011;59604;52.138;5.446;2022-12-20T06:50:02;7.32;;;3.00;;
71767;SDS011;59604;52.138;5.446;2022-12-20T06:52:29;7.03;;;2.63;;
71767;SDS011;59604;52.138;5.446;2022-12-20T06:54:57;7.13;;;3.03;;
71767;SDS011;59604;52.138;5.446;2022-12-20T06:57:24;7.88;;;2.90;;
71767;SDS011;59604;52.138;5.446;2022-12-20T06:59:50;6.57;;;2.78;;
71767;SDS011;59604;52.138;5.446;2022-12-20T07:02:17;6.88;;;2.65;;
71767;SDS011;59604;52.138;5.446;2022-12-20T07:04:44;6.03;;;3.00;;
71767;SDS011;59604;52.138;5.446;2022-12-20T07:07:11;7.43;;;3.00;;
71767;SDS011;59604;52.138;5.446;2022-12-20T07:09:38;6.95;;;2.72;;
71767;SDS011;59604;52.138;5.446;2022-12-20T07:12:07;7.00;;;2.60;;
71767;SDS011;59604;52.138;5.446;2022-12-20T07:14:34;7.88;;;2.72;;
71767;SDS011;59604;52.138;5.446;2022-12-20T07:17:02;5.70;;;2.47;;
71767;SDS011;59604;52.138;5.446;2022-12-20T07:19:30;7.03;;;3.03;;
71767;SDS011;59604;52.138;5.446;2022-12-20T07:21:57;5.95;;;2.70;;
71767;SDS011;59604;52.138;5.446;2022-12-20T07:24:24;6.07;;;2.22;;
71767;SDS011;59604;52.138;5.446;2022-12-20T07:26:51;6.82;;;2.70;;
71767;SDS011;59604;52.138;5.446;2022-12-20T07:29:17;6.30;;;2.45;;
71767;SDS011;59604;52.138;5.446;2022-12-20T07:31:44;7.30;;;2.45;;
71767;SDS011;59604;52.138;5.446;2022-12-20T07:34:11;6.30;;;2.35;;
71767;SDS011;59604;52.138;5.446;2022-12-20T07:36:38;5.38;;;2.30;;
71767;SDS011;59604;52.138;5.446;2022-12-20T07:39:05;9.20;;;2.50;;
71767;SDS011;59604;52.138;5.446;2022-12-20T07:41:31;6.55;;;2.20;;
71767;SDS011;59604;52.138;5.446;2022-12-20T07:43:58;7.53;;;2.30;;
71767;SDS011;59604;52.138;5.446;2022-12-20T07:46:25;5.82;;;2.28;;
71767;SDS011;59604;52.138;5.446;2022-12-20T07:48:53;6.15;;;2.38;;
71767;SDS011;59604;52.138;5.446;2022-12-20T07:51:21;7.57;;;2.33;;
71767;SDS011;59604;52.138;5.446;2022-12-20T07:53:53;8.20;;;2.30;;
71767;SDS011;59604;52.138;5.446;2022-12-20T07:56:30;5.75;;;2.22;;
71767;SDS011;59604;52.138;5.446;2022-12-20T07:59:07;6.15;;;2.17;;
71767;SDS011;59604;52.138;5.446;2022-12-20T08:01:36;5.43;;;2.50;;
71767;SDS011;59604;52.138;5.446;2022-12-20T08:04:06;5.38;;;2.30;;
71767;SDS011;59604;52.138;5.446;2022-12-20T08:06:36;5.00;;;2.25;;
71767;SDS011;59604;52.138;5.446;2022-12-20T08:09:05;6.05;;;2.30;;
71767;SDS011;59604;52.138;5.446;2022-12-20T08:11:34;5.45;;;2.22;;
71767;SDS011;59604;52.138;5.446;2022-12-20T08:14:03;6.40;;;2.20;;
71767;SDS011;59604;52.138;5.446;2022-12-20T08:16:32;5.72;;;1.92;;
71767;SDS011;59604;52.138;5.446;2022-12-20T08:18:59;4.90;;;2.03;;
71767;SDS011;59604;52.138;5.446;2022-12-20T08:21:26;6.32;;;2.08;;
71767;SDS011;59604;52.138;5.446;2022-12-20T08:23:54;6.30;;;2.08;;
71767;SDS011;59604;52.138;5.446;2022-12-20T08:26:22;5.28;;;1.85;;
71767;SDS011;59604;52.138;5.446;2022-12-20T08:28:48;6.32;;;2.22;;
71767;SDS011;59604;52.138;5.446;2022-12-20T08:31:15;7.28;;;2.55;;
71767;SDS011;59604;52.138;5.446;2022-12-20T08:33:42;6.00;;;2.50;;
71767;SDS011;59604;52.138;5.446;2022-12-20T08:36:09;6.28;;;2.08;;
71767;SDS011;59604;52.138;5.446;2022-12-20T08:38:38;6.75;;;2.10;;
71767;SDS011;59604;52.138;5.446;2022-12-20T08:41:09;5.03;;;2.15;;
71767;SDS011;59604;52.138;5.446;2022-12-20T08:43:37;5.25;;;2.17;;
71767;SDS011;59604;52.138;5.446;2022-12-20T08:46:07;5.40;;;2.00;;
71767;SDS011;59604;52.138;5.446;2022-12-20T08:48:35;6.68;;;2.20;;
71767;SDS011;59604;52.138;5.446;2022-12-20T08:51:03;5.35;;;2.20;;
71767;SDS011;59604;52.138;5.446;2022-12-20T08:53:32;6.20;;;2.63;;
71767;SDS011;59604;52.138;5.446;2022-12-20T08:56:07;5.38;;;1.80;;
71767;SDS011;59604;52.138;5.446;2022-12-20T08:58:36;4.55;;;1.77;;
71767;SDS011;59604;52.138;5.446;2022-12-20T09:01:05;5.47;;;2.08;;
71767;SDS011;59604;52.138;5.446;2022-12-20T09:03:34;5.80;;;2.20;;
71767;SDS011;59604;52.138;5.446;2022-12-20T09:06:06;5.95;;;2.10;;
71767;SDS011;59604;52.138;5.446;2022-12-20T09:08:34;6.40;;;2.28;;
71767;SDS011;59604;52.138;5.446;2022-12-20T09:14:00;7.32;;;2.20;;
71767;SDS011;59604;52.138;5.446;2022-12-20T09:16:28;8.55;;;2.10;;
71767;SDS011;59604;52.138;5.446;2022-12-20T09:18:57;5.88;;;2.20;;
71767;SDS011;59604;52.138;5.446;2022-12-20T09:21:31;5.25;;;2.20;;
71767;SDS011;59604;52.138;5.446;2022-12-20T09:23:59;8.85;;;2.17;;
71767;SDS011;59604;52.138;5.446;2022-12-20T09:26:26;5.75;;;2.25;;
71767;SDS011;59604;52.138;5.446;2022-12-20T09:28:52;6.38;;;2.35;;
71767;SDS011;59604;52.138;5.446;2022-12-20T09:31:20;6.97;;;2.20;;
71767;SDS011;59604;52.138;5.446;2022-12-20T09:33:51;6.07;;;2.33;;
71767;SDS011;59604;52.138;5.446;2022-12-20T09:36:20;5.97;;;2.25;;
71767;SDS011;59604;52.138;5.446;2022-12-20T09:41:28;5.55;;;2.30;;
71767;SDS011;59604;52.138;5.446;2022-12-20T09:44:01;6.40;;;2.10;;
71767;SDS011;59604;52.138;5.446;2022-12-20T09:46:38;6.00;;;2.30;;
71767;SDS011;59604;52.138;5.446;2022-12-20T09:49:07;5.88;;;2.20;;
71767;SDS011;59604;52.138;5.446;2022-12-20T09:51:44;7.10;;;2.13;;
71767;SDS011;59604;52.138;5.446;2022-12-20T09:57:14;5.93;;;2.20;;
71767;SDS011;59604;52.138;5.446;2022-12-20T10:00:01;8.20;;;2.30;;
71767;SDS011;59604;52.138;5.446;2022-12-20T10:02:28;7.65;;;2.30;;
71767;SDS011;59604;52.138;5.446;2022-12-20T10:05:21;6.63;;;2.63;;
71767;SDS011;59604;52.138;5.446;2022-12-20T10:08:14;6.72;;;2.50;;
71767;SDS011;59604;52.138;5.446;2022-12-20T10:24:31;6.78;;;2.53;;
71767;SDS011;59604;52.138;5.446;2022-12-20T10:27:08;7.65;;;2.47;;
71767;SDS011;59604;52.138;5.446;2022-12-20T10:32:13;7.30;;;2.40;;
71767;SDS011;59604;52.138;5.446;2022-12-20T10:35:30;6.45;;;2.38;;
71767;SDS011;59604;52.138;5.446;2022-12-20T10:38:00;7.75;;;2.72;;
71767;SDS011;59604;52.138;5.446;2022-12-20T10:43:23;6.70;;;2.95;;
71767;SDS011;59604;52.138;5.446;2022-12-20T10:45:55;6.75;;;2.80;;
71767;SDS011;59604;52.138;5.446;2022-12-20T10:48:34;8.20;;;2.60;;
71767;SDS011;59604;52.138;5.446;2022-12-20T10:53:57;7.65;;;2.75;;
71767;SDS011;59604;52.138;5.446;2022-12-20T10:56:33;6.60;;;2.67;;
71767;SDS011;59604;52.138;5.446;2022-12-20T11:01:44;6.75;;;2.53;;
71767;SDS011;59604;52.138;5.446;2022-12-20T11:04:32;7.55;;;2.67;;
71767;SDS011;59604;52.138;5.446;2022-12-20T11:07:02;9.10;;;2.90;;
71767;SDS011;59604;52.138;5.446;2022-12-20T11:09:53;7.32;;;2.60;;
71767;SDS011;59604;52.138;5.446;2022-12-20T11:12:21;6.57;;;2.67;;
71767;SDS011;59604;52.138;5.446;2022-12-20T11:14:48;7.13;;;2.78;;
71767;SDS011;59604;52.138;5.446;2022-12-20T11:17:21;9.50;;;2.80;;
71767;SDS011;59604;52.138;5.446;2022-12-20T11:25:35;8.75;;;3.10;;
71767;SDS011;59604;52.138;5.446;2022-12-20T11:31:19;7.25;;;2.95;;
71767;SDS011;59604;52.138;5.446;2022-12-20T11:53:26;7.85;;;3.30;;
71767;SDS011;59604;52.138;5.446;2022-12-20T11:55:57;8.65;;;3.90;;
71767;SDS011;59604;52.138;5.446;2022-12-20T11:58:33;9.40;;;4.38;;
71767;SDS011;59604;52.138;5.446;2022-12-20T12:01:08;7.43;;;3.47;;
71767;SDS011;59604;52.138;5.446;2022-12-20T12:03:40;7.75;;;3.78;;
71767;SDS011;59604;52.138;5.446;2022-12-20T12:06:21;8.70;;;4.07;;
71767;SDS011;59604;52.138;5.446;2022-12-20T12:11:34;8.18;;;3.65;;
71767;SDS011;59604;52.138;5.446;2022-12-20T12:14:46;8.32;;;3.95;;
71767;SDS011;59604;52.138;5.446;2022-12-20T12:17:30;9.57;;;3.72;;
71767;SDS011;59604;52.138;5.446;2022-12-20T12:20:03;8.38;;;4.05;;
71767;SDS011;59604;52.138;5.446;2022-12-20T12:22:44;7.45;;;3.80;;
71767;SDS011;59604;52.138;5.446;2022-12-20T12:25:14;8.55;;;3.80;;
71767;SDS011;59604;52.138;5.446;2022-12-20T12:27:43;8.45;;;4.30;;
71767;SDS011;59604;52.138;5.446;2022-12-20T12:30:11;7.63;;;3.80;;
71767;SDS011;59604;52.138;5.446;2022-12-20T12:32:51;7.80;;;3.80;;
71767;SDS011;59604;52.138;5.446;2022-12-20T12:35:35;8.65;;;4.10;;
71767;SDS011;59604;52.138;5.446;2022-12-20T12:38:15;8.75;;;3.67;;
71767;SDS011;59604;52.138;5.446;2022-12-20T12:41:25;8.45;;;3.70;;
71767;SDS011;59604;52.138;5.446;2022-12-20T12:46:44;7.05;;;3.67;;
71767;SDS011;59604;52.138;5.446;2022-12-20T12:49:20;8.07;;;4.13;;
71767;SDS011;59604;52.138;5.446;2022-12-20T12:51:50;7.57;;;3.90;;
71767;SDS011;59604;52.138;5.446;2022-12-20T12:54:36;10.18;;;4.07;;
71767;SDS011;59604;52.138;5.446;2022-12-20T12:57:09;8.75;;;3.92;;
71767;SDS011;59604;52.138;5.446;2022-12-20T12:59:41;8.88;;;4.20;;
71767;SDS011;59604;52.138;5.446;2022-12-20T13:20:27;8.38;;;4.35;;
71767;SDS011;59604;52.138;5.446;2022-12-20T13:25:36;10.68;;;4.75;;
71767;SDS011;59604;52.138;5.446;2022-12-20T13:30:44;8.65;;;4.63;;
71767;SDS011;59604;52.138;5.446;2022-12-20T13:35:52;8.45;;;4.40;;
71767;SDS011;59604;52.138;5.446;2022-12-20T13:44:14;8.07;;;4.18;;
71767;SDS011;59604;52.138;5.446;2022-12-20T13:49:43;8.30;;;4.70;;
71767;SDS011;59604;52.138;5.446;2022-12-20T13:54:40;8.73;;;4.45;;
71767;SDS011;59604;52.138;5.446;2022-12-20T13:57:13;9.30;;;4.55;;
71767;SDS011;59604;52.138;5.446;2022-12-20T13:59:46;9.27;;;4.68;;
71767;SDS011;59604;52.138;5.446;2022-12-20T14:02:18;8.80;;;4.53;;
71767;SDS011;59604;52.138;5.446;2022-12-20T14:04:52;8.73;;;4.82;;
71767;SDS011;59604;52.138;5.446;2022-12-20T14:07:24;8.30;;;4.80;;
71767;SDS011;59604;52.138;5.446;2022-12-20T14:09:54;10.00;;;4.90;;
71767;SDS011;59604;52.138;5.446;2022-12-20T14:12:25;11.70;;;5.35;;
71767;SDS011;59604;52.138;5.446;2022-12-20T14:15:01;8.40;;;4.82;;
71767;SDS011;59604;52.138;5.446;2022-12-20T14:17:30;9.65;;;4.70;;
71767;SDS011;59604;52.138;5.446;2022-12-20T14:20:17;9.95;;;4.82;;
71767;SDS011;59604;52.138;5.446;2022-12-20T14:28:14;8.95;;;5.07;;
71767;SDS011;59604;52.138;5.446;2022-12-20T14:30:52;9.70;;;4.82;;
71767;SDS011;59604;52.138;5.446;2022-12-20T14:33:24;9.75;;;4.57;;
71767;SDS011;59604;52.138;5.446;2022-12-20T14:35:55;9.88;;;5.13;;
71767;SDS011;59604;52.138;5.446;2022-12-20T14:38:24;9.27;;;4.72;;
71767;SDS011;59604;52.138;5.446;2022-12-20T14:40:58;9.02;;;5.10;;
71767;SDS011;59604;52.138;5.446;2022-12-20T14:43:31;8.90;;;4.80;;
71767;SDS011;59604;52.138;5.446;2022-12-20T14:48:42;9.65;;;5.05;;
71767;SDS011;59604;52.138;5.446;2022-12-20T14:51:09;10.52;;;4.95;;
71767;SDS011;59604;52.138;5.446;2022-12-20T14:53:36;9.60;;;5.50;;
71767;SDS011;59604;52.138;5.446;2022-12-20T14:56:12;9.48;;;4.90;;
71767;SDS011;59604;52.138;5.446;2022-12-20T14:58:40;8.70;;;5.07;;
71767;SDS011;59604;52.138;5.446;2022-12-20T15:01:20;8.95;;;5.20;;
71767;SDS011;59604;52.138;5.446;2022-12-20T15:03:56;10.55;;;5.47;;
71767;SDS011;59604;52.138;5.446;2022-12-20T15:06:32;10.32;;;5.00;;
71767;SDS011;59604;52.138;5.446;2022-12-20T15:09:09;10.27;;;5.47;;
71767;SDS011;59604;52.138;5.446;2022-12-20T15:11:36;9.93;;;5.30;;
71767;SDS011;59604;52.138;5.446;2022-12-20T15:14:46;9.60;;;5.30;;
71767;SDS011;59604;52.138;5.446;2022-12-20T15:16:56;10.35;;;5.65;;
71767;SDS011;59604;52.138;5.446;2022-12-20T15:19:23;12.10;;;6.90;;
71767;SDS011;59604;52.138;5.446;2022-12-20T15:21:50;10.30;;;5.65;;
71767;SDS011;59604;52.138;5.446;2022-12-20T15:24:23;11.32;;;6.70;;
71767;SDS011;59604;52.138;5.446;2022-12-20T15:26:52;10.00;;;5.72;;
71767;SDS011;59604;52.138;5.446;2022-12-20T15:29:26;10.95;;;6.13;;
71767;SDS011;59604;52.138;5.446;2022-12-20T15:32:04;10.55;;;5.90;;
71767;SDS011;59604;52.138;5.446;2022-12-20T15:34:46;10.85;;;6.32;;
71767;SDS011;59604;52.138;5.446;2022-12-20T15:37:13;14.18;;;6.30;;
71767;SDS011;59604;52.138;5.446;2022-12-20T15:39:44;11.02;;;6.13;;
71767;SDS011;59604;52.138;5.446;2022-12-20T15:42:12;12.48;;;6.78;;
71767;SDS011;59604;52.138;5.446;2022-12-20T15:44:42;13.57;;;7.65;;
71767;SDS011;59604;52.138;5.446;2022-12-20T15:47:11;12.82;;;6.57;;
71767;SDS011;59604;52.138;5.446;2022-12-20T15:49:39;11.02;;;6.13;;
71767;SDS011;59604;52.138;5.446;2022-12-20T15:52:18;11.40;;;6.57;;
71767;SDS011;59604;52.138;5.446;2022-12-20T15:54:47;13.85;;;6.82;;
71767;SDS011;59604;52.138;5.446;2022-12-20T15:57:14;18.42;;;8.60;;
71767;SDS011;59604;52.138;5.446;2022-12-20T15:59:41;15.55;;;7.63;;
71767;SDS011;59604;52.138;5.446;2022-12-20T16:04:56;11.52;;;6.10;;
71767;SDS011;59604;52.138;5.446;2022-12-20T16:07:24;12.25;;;6.50;;
71767;SDS011;59604;52.138;5.446;2022-12-20T16:09:51;11.45;;;6.38;;
71767;SDS011;59604;52.138;5.446;2022-12-20T16:12:20;14.40;;;7.47;;
71767;SDS011;59604;52.138;5.446;2022-12-20T16:14:50;14.05;;;6.93;;
71767;SDS011;59604;52.138;5.446;2022-12-20T16:17:17;17.77;;;7.68;;
71767;SDS011;59604;52.138;5.446;2022-12-20T16:19:44;15.13;;;7.70;;
71767;SDS011;59604;52.138;5.446;2022-12-20T16:22:15;14.70;;;7.22;;
71767;SDS011;59604;52.138;5.446;2022-12-20T16:24:43;11.25;;;6.25;;
71767;SDS011;59604;52.138;5.446;2022-12-20T16:27:10;12.23;;;6.70;;
71767;SDS011;59604;52.138;5.446;2022-12-20T16:29:37;12.85;;;7.05;;
71767;SDS011;59604;52.138;5.446;2022-12-20T16:32:13;13.05;;;7.15;;
71767;SDS011;59604;52.138;5.446;2022-12-20T16:34:49;14.20;;;7.53;;
71767;SDS011;59604;52.138;5.446;2022-12-20T16:37:16;14.43;;;7.82;;
71767;SDS011;59604;52.138;5.446;2022-12-20T16:39:43;15.68;;;7.28;;
71767;SDS011;59604;52.138;5.446;2022-12-20T16:42:14;12.80;;;7.32;;
71767;SDS011;59604;52.138;5.446;2022-12-20T16:44:42;12.82;;;7.03;;
71767;SDS011;59604;52.138;5.446;2022-12-20T16:47:11;14.80;;;7.18;;
71767;SDS011;59604;52.138;5.446;2022-12-20T16:49:38;13.55;;;7.15;;
71767;SDS011;59604;52.138;5.446;2022-12-20T16:52:15;13.57;;;6.80;;
71767;SDS011;59604;52.138;5.446;2022-12-20T16:54:43;14.32;;;6.90;;
71767;SDS011;59604;52.138;5.446;2022-12-20T16:57:10;13.55;;;7.18;;
71767;SDS011;59604;52.138;5.446;2022-12-20T16:59:37;13.93;;;7.38;;
71767;SDS011;59604;52.138;5.446;2022-12-20T17:02:04;12.75;;;7.20;;
71767;SDS011;59604;52.138;5.446;2022-12-20T17:04:51;14.10;;;7.28;;
71767;SDS011;59604;52.138;5.446;2022-12-20T17:07:18;12.50;;;6.50;;
71767;SDS011;59604;52.138;5.446;2022-12-20T17:09:45;12.10;;;6.53;;
71767;SDS011;59604;52.138;5.446;2022-12-20T17:12:13;13.05;;;6.88;;